Venice, CA

01:40 PDT le 01 octobre 2016 (GMT -0700)
Abbot Kinney | | Change Station

Alt. 20 ft 33.99 °N, 118.47 °W | Updated 48 seconds ago

Clear
Ciel dégagé
67.2 ° F
Paraît 67.2 ° F
N
0.0
Vent Variable Vent de SSE
Gusts 0.0 mph

Aujourd'hui
Haut(e) -- | Bas -- ° F
--% Risque de précip.
Hier
Haut(e) -- | Bas -- ° F
Precip. -- pouce
Pression 29.97 pouce
Visibilité 10.0 Miles terrestres
Nuages Ciel dégagé
Point de rosée 63 ° F
Humidité 87%
Précipitations 0.00 pouce
Profondeur de la couche neigeuse Non disponible.
6:48 AM 6:37 PM
Nouvelle lune, 0% visible
METAR KSMO 010751Z AUTO 07003KT 10SM CLR 19/17 A2998 RMK AO2 SLP149 T01890172 402670189
Pression 29.97 pouce
Visibilité 10.0 Miles terrestres
Nuages Ciel dégagé
Point de rosée 63 ° F
Humidité 87%
Précipitations 0.00 pouce
Profondeur de la couche neigeuse Non disponible.
6:48 AM 6:37 PM
Nouvelle lune, 0% visible
METAR KSMO 010751Z AUTO 07003KT 10SM CLR 19/17 A2998 RMK AO2 SLP149 T01890172 402670189

10-Day Weather Forecast

Almanac

Astronomie

Oct. 01, 2016 Lever Coucher
Temps réel
Crépuscule civil
Crépuscule nautique
Crépuscule astronomique
Lune
Durée de lumière visible
Longueur du jour
Tomorrow will be .
, % of the Moon is Illuminated

Extrêmes aujourd'hui

State Highs State Lows

Community

WunderPhotos

Upload Photos

1,942,898 Photos téléchargées !

WunderBlog® & News

Nearby

Qualité de l'air

  Qualité de l'air Indice de la qualité de l'air Polluant
Not available.

Épaisseur de neige

Station Depth Altitude

Activité sismique

Ville Distance Mag. Time & Date
Minimum magnitude displayed is 2.5.

Températures des eaux côtières

Lieu Température

Stations

Stations météo à proximité

Emplacement de la station Température Refroidissement éolien Point de rosée Humidité Vent Precip. Alt. Mise à jour Type
                   

Watches & Warnings

There are currently no watches in effect.